Terminal Aerodrome Forecast
Issued by NWS Wichita, KS

Home | Current Version | Previous Version | Text Only | Print | Product List | Glossary Off
Versions: 1 2 3 4 5 6 7 8 9 10 11 12

000
FTUS43 KICT 211720
TAFICT
TAF
KICT 211720Z 2118/2218 01022G31KT P6SM SKC
     FM220100 01014KT P6SM SKC
     FM220400 01007KT P6SM SKC
     FM221600 18007KT P6SM FEW250=

USA.gov is the U.S. government's official web portal to all federal, state and local government web resources and services.